sensor_id;sensor_type;location;lat;lon;timestamp;P1;durP1;ratioP1;P2;durP2;ratioP2
10440;SDS011;5268;49.346;9.522;2023-07-24T03:08:57;8.00;;;6.72;;
10440;SDS011;5268;49.346;9.522;2023-07-24T03:13:59;8.80;;;6.88;;
10440;SDS011;5268;49.346;9.522;2023-07-24T03:19:01;8.52;;;7.20;;
10440;SDS011;5268;49.346;9.522;2023-07-24T03:24:05;7.53;;;6.43;;
10440;SDS011;5268;49.346;9.522;2023-07-24T03:29:07;8.48;;;6.72;;
10440;SDS011;5268;49.346;9.522;2023-07-24T03:34:09;8.57;;;6.90;;
10440;SDS011;5268;49.346;9.522;2023-07-24T03:39:12;10.35;;;7.47;;
10440;SDS011;5268;49.346;9.522;2023-07-24T03:44:14;8.63;;;7.18;;
10440;SDS011;5268;49.346;9.522;2023-07-24T03:49:16;9.15;;;7.13;;
10440;SDS011;5268;49.346;9.522;2023-07-24T03:54:19;8.73;;;7.25;;
10440;SDS011;5268;49.346;9.522;2023-07-24T03:59:21;9.45;;;7.18;;
10440;SDS011;5268;49.346;9.522;2023-07-24T04:04:23;9.68;;;7.10;;
10440;SDS011;5268;49.346;9.522;2023-07-24T04:09:26;9.20;;;7.18;;
10440;SDS011;5268;49.346;9.522;2023-07-24T04:14:28;8.63;;;7.28;;
10440;SDS011;5268;49.346;9.522;2023-07-24T04:19:30;9.02;;;6.90;;
10440;SDS011;5268;49.346;9.522;2023-07-24T04:24:34;9.82;;;7.13;;
10440;SDS011;5268;49.346;9.522;2023-07-24T04:29:36;10.38;;;7.38;;
10440;SDS011;5268;49.346;9.522;2023-07-24T04:34:38;10.10;;;7.40;;
10440;SDS011;5268;49.346;9.522;2023-07-24T04:39:41;9.00;;;7.13;;
10440;SDS011;5268;49.346;9.522;2023-07-24T04:44:43;9.30;;;7.35;;
10440;SDS011;5268;49.346;9.522;2023-07-24T04:49:45;8.48;;;7.10;;
10440;SDS011;5268;49.346;9.522;2023-07-24T04:54:49;8.80;;;7.20;;
10440;SDS011;5268;49.346;9.522;2023-07-24T04:59:50;10.57;;;8.20;;
10440;SDS011;5268;49.346;9.522;2023-07-24T05:04:53;10.77;;;8.35;;
10440;SDS011;5268;49.346;9.522;2023-07-24T05:09:56;9.77;;;7.25;;
10440;SDS011;5268;49.346;9.522;2023-07-24T05:14:58;11.88;;;8.57;;
10440;SDS011;5268;49.346;9.522;2023-07-24T05:20:00;10.35;;;8.48;;
10440;SDS011;5268;49.346;9.522;2023-07-24T05:25:04;11.10;;;8.68;;
10440;SDS011;5268;49.346;9.522;2023-07-24T05:30:07;12.07;;;8.18;;
10440;SDS011;5268;49.346;9.522;2023-07-24T05:35:09;11.65;;;9.10;;
10440;SDS011;5268;49.346;9.522;2023-07-24T05:40:13;10.95;;;8.45;;
10440;SDS011;5268;49.346;9.522;2023-07-24T05:45:15;14.70;;;8.32;;
10440;SDS011;5268;49.346;9.522;2023-07-24T05:50:17;13.02;;;8.50;;
10440;SDS011;5268;49.346;9.522;2023-07-24T05:55:20;10.98;;;7.95;;
10440;SDS011;5268;49.346;9.522;2023-07-24T06:00:22;11.27;;;7.80;;
10440;SDS011;5268;49.346;9.522;2023-07-24T06:05:24;10.27;;;8.50;;
10440;SDS011;5268;49.346;9.522;2023-07-24T06:10:28;11.63;;;8.73;;
10440;SDS011;5268;49.346;9.522;2023-07-24T06:15:30;11.43;;;8.90;;
10440;SDS011;5268;49.346;9.522;2023-07-24T06:20:32;11.35;;;8.25;;
10440;SDS011;5268;49.346;9.522;2023-07-24T06:25:36;11.38;;;7.85;;
10440;SDS011;5268;49.346;9.522;2023-07-24T06:30:39;11.35;;;7.53;;
10440;SDS011;5268;49.346;9.522;2023-07-24T06:35:40;11.18;;;7.88;;
10440;SDS011;5268;49.346;9.522;2023-07-24T06:40:44;9.13;;;7.03;;
10440;SDS011;5268;49.346;9.522;2023-07-24T06:45:46;10.82;;;8.15;;
10440;SDS011;5268;49.346;9.522;2023-07-24T06:50:48;10.07;;;8.27;;
10440;SDS011;5268;49.346;9.522;2023-07-24T06:55:51;11.00;;;8.20;;
10440;SDS011;5268;49.346;9.522;2023-07-24T07:00:53;11.05;;;7.85;;
10440;SDS011;5268;49.346;9.522;2023-07-24T07:05:58;8.88;;;7.80;;
10440;SDS011;5268;49.346;9.522;2023-07-24T07:11:01;10.30;;;7.93;;
10440;SDS011;5268;49.346;9.522;2023-07-24T07:16:03;10.20;;;7.63;;
10440;SDS011;5268;49.346;9.522;2023-07-24T07:21:06;10.48;;;7.72;;
10440;SDS011;5268;49.346;9.522;2023-07-24T07:26:09;9.77;;;7.32;;
10440;SDS011;5268;49.346;9.522;2023-07-24T07:31:11;8.85;;;7.70;;
10440;SDS011;5268;49.346;9.522;2023-07-24T07:36:13;9.60;;;7.78;;
10440;SDS011;5268;49.346;9.522;2023-07-24T07:41:17;12.02;;;8.00;;
10440;SDS011;5268;49.346;9.522;2023-07-24T07:46:19;9.25;;;7.53;;
10440;SDS011;5268;49.346;9.522;2023-07-24T07:51:21;9.30;;;8.00;;
10440;SDS011;5268;49.346;9.522;2023-07-24T07:56:27;12.70;;;7.65;;
10440;SDS011;5268;49.346;9.522;2023-07-24T08:01:29;10.63;;;8.25;;
10440;SDS011;5268;49.346;9.522;2023-07-24T08:06:32;10.40;;;8.18;;
10440;SDS011;5268;49.346;9.522;2023-07-24T08:11:35;10.85;;;7.97;;
10440;SDS011;5268;49.346;9.522;2023-07-24T08:16:37;11.90;;;8.45;;
10440;SDS011;5268;49.346;9.522;2023-07-24T08:21:39;10.48;;;8.45;;
10440;SDS011;5268;49.346;9.522;2023-07-24T08:26:43;10.43;;;8.50;;
10440;SDS011;5268;49.346;9.522;2023-07-24T08:31:45;11.10;;;8.48;;
10440;SDS011;5268;49.346;9.522;2023-07-24T08:36:47;9.77;;;8.50;;
10440;SDS011;5268;49.346;9.522;2023-07-24T08:41:50;12.13;;;8.52;;
10440;SDS011;5268;49.346;9.522;2023-07-24T08:46:52;10.95;;;8.20;;
10440;SDS011;5268;49.346;9.522;2023-07-24T08:51:54;10.18;;;8.38;;
10440;SDS011;5268;49.346;9.522;2023-07-24T08:56:59;11.48;;;8.57;;
10440;SDS011;5268;49.346;9.522;2023-07-24T09:02:01;10.18;;;8.38;;
10440;SDS011;5268;49.346;9.522;2023-07-24T09:07:04;11.23;;;8.05;;
10440;SDS011;5268;49.346;9.522;2023-07-24T09:12:08;17.63;;;13.40;;
10440;SDS011;5268;49.346;9.522;2023-07-24T09:17:17;18.35;;;15.35;;
10440;SDS011;5268;49.346;9.522;2023-07-24T09:22:19;12.98;;;9.07;;
10440;SDS011;5268;49.346;9.522;2023-07-24T09:27:24;10.77;;;8.38;;
10440;SDS011;5268;49.346;9.522;2023-07-24T09:32:27;10.88;;;8.95;;
10440;SDS011;5268;49.346;9.522;2023-07-24T09:37:32;10.95;;;8.85;;
10440;SDS011;5268;49.346;9.522;2023-07-24T09:42:37;12.32;;;9.13;;
10440;SDS011;5268;49.346;9.522;2023-07-24T09:47:40;11.10;;;8.55;;
10440;SDS011;5268;49.346;9.522;2023-07-24T09:52:42;12.52;;;8.52;;
10440;SDS011;5268;49.346;9.522;2023-07-24T09:57:47;10.63;;;8.20;;
10440;SDS011;5268;49.346;9.522;2023-07-24T10:02:51;11.98;;;9.00;;
10440;SDS011;5268;49.346;9.522;2023-07-24T10:07:53;10.52;;;8.93;;
10440;SDS011;5268;49.346;9.522;2023-07-24T10:12:57;12.00;;;8.43;;
10440;SDS011;5268;49.346;9.522;2023-07-24T10:18:01;8.75;;;7.60;;
10440;SDS011;5268;49.346;9.522;2023-07-24T10:23:04;10.80;;;8.15;;
10440;SDS011;5268;49.346;9.522;2023-07-24T10:28:08;10.13;;;7.35;;
10440;SDS011;5268;49.346;9.522;2023-07-24T10:33:12;10.65;;;7.85;;
10440;SDS011;5268;49.346;9.522;2023-07-24T10:38:18;11.48;;;7.88;;
10440;SDS011;5268;49.346;9.522;2023-07-24T10:43:22;10.52;;;8.02;;
10440;SDS011;5268;49.346;9.522;2023-07-24T10:48:25;10.93;;;8.70;;
10440;SDS011;5268;49.346;9.522;2023-07-24T10:53:27;10.20;;;8.70;;
10440;SDS011;5268;49.346;9.522;2023-07-24T10:58:30;10.60;;;8.52;;
10440;SDS011;5268;49.346;9.522;2023-07-24T11:03:34;10.20;;;8.52;;
10440;SDS011;5268;49.346;9.522;2023-07-24T11:08:37;12.63;;;9.00;;
10440;SDS011;5268;49.346;9.522;2023-07-24T11:13:41;11.20;;;9.00;;
10440;SDS011;5268;49.346;9.522;2023-07-24T11:18:44;12.25;;;9.07;;
10440;SDS011;5268;49.346;9.522;2023-07-24T11:23:48;15.90;;;12.00;;
10440;SDS011;5268;49.346;9.522;2023-07-24T11:28:52;13.20;;;10.07;;
10440;SDS011;5268;49.346;9.522;2023-07-24T11:33:55;13.40;;;9.85;;
10440;SDS011;5268;49.346;9.522;2023-07-24T11:38:58;12.13;;;9.88;;
10440;SDS011;5268;49.346;9.522;2023-07-24T11:44:02;10.80;;;8.95;;
10440;SDS011;5268;49.346;9.522;2023-07-24T11:49:04;10.27;;;8.93;;
10440;SDS011;5268;49.346;9.522;2023-07-24T11:54:07;10.63;;;8.23;;
10440;SDS011;5268;49.346;9.522;2023-07-24T11:59:13;11.65;;;8.70;;
10440;SDS011;5268;49.346;9.522;2023-07-24T12:04:16;11.00;;;8.63;;
10440;SDS011;5268;49.346;9.522;2023-07-24T12:09:18;9.85;;;8.18;;
10440;SDS011;5268;49.346;9.522;2023-07-24T12:14:21;8.88;;;7.97;;
10440;SDS011;5268;49.346;9.522;2023-07-24T12:19:23;8.85;;;7.93;;
10440;SDS011;5268;49.346;9.522;2023-07-24T12:24:26;10.05;;;7.68;;
10440;SDS011;5268;49.346;9.522;2023-07-24T12:29:29;10.73;;;7.05;;
10440;SDS011;5268;49.346;9.522;2023-07-24T12:34:31;9.73;;;7.18;;
10440;SDS011;5268;49.346;9.522;2023-07-24T12:39:33;7.70;;;6.90;;
10440;SDS011;5268;49.346;9.522;2023-07-24T12:44:36;8.98;;;7.00;;
10440;SDS011;5268;49.346;9.522;2023-07-24T12:49:38;9.02;;;7.00;;
10440;SDS011;5268;49.346;9.522;2023-07-24T12:54:40;7.28;;;6.30;;
10440;SDS011;5268;49.346;9.522;2023-07-24T12:59:44;9.68;;;6.13;;
10440;SDS011;5268;49.346;9.522;2023-07-24T13:04:46;8.20;;;6.75;;
10440;SDS011;5268;49.346;9.522;2023-07-24T13:09:48;7.10;;;5.60;;
10440;SDS011;5268;49.346;9.522;2023-07-24T13:14:51;7.88;;;6.18;;
10440;SDS011;5268;49.346;9.522;2023-07-24T13:19:53;8.63;;;6.00;;
10440;SDS011;5268;49.346;9.522;2023-07-24T13:24:55;8.32;;;5.60;;
10440;SDS011;5268;49.346;9.522;2023-07-24T13:29:58;6.93;;;5.72;;
10440;SDS011;5268;49.346;9.522;2023-07-24T13:35:01;7.55;;;5.78;;
10440;SDS011;5268;49.346;9.522;2023-07-24T13:40:03;5.97;;;5.38;;
10440;SDS011;5268;49.346;9.522;2023-07-24T13:45:08;7.32;;;5.65;;
10440;SDS011;5268;49.346;9.522;2023-07-24T13:50:10;7.30;;;6.22;;
10440;SDS011;5268;49.346;9.522;2023-07-24T13:55:12;6.75;;;5.47;;
10440;SDS011;5268;49.346;9.522;2023-07-24T14:00:17;7.57;;;6.00;;
10440;SDS011;5268;49.346;9.522;2023-07-24T14:05:19;7.10;;;6.07;;
10440;SDS011;5268;49.346;9.522;2023-07-24T14:10:21;5.95;;;5.43;;
10440;SDS011;5268;49.346;9.522;2023-07-24T14:15:24;6.93;;;5.90;;
10440;SDS011;5268;49.346;9.522;2023-07-24T14:20:26;6.50;;;5.15;;
10440;SDS011;5268;49.346;9.522;2023-07-24T14:25:28;7.68;;;5.60;;
10440;SDS011;5268;49.346;9.522;2023-07-24T14:30:31;6.45;;;5.72;;
10440;SDS011;5268;49.346;9.522;2023-07-24T14:35:33;6.60;;;5.70;;
10440;SDS011;5268;49.346;9.522;2023-07-24T14:40:35;7.85;;;5.80;;
10440;SDS011;5268;49.346;9.522;2023-07-24T14:45:39;7.03;;;5.45;;
10440;SDS011;5268;49.346;9.522;2023-07-24T14:50:40;7.30;;;5.90;;
10440;SDS011;5268;49.346;9.522;2023-07-24T14:55:42;6.78;;;5.90;;
10440;SDS011;5268;49.346;9.522;2023-07-24T15:00:46;6.55;;;5.78;;
10440;SDS011;5268;49.346;9.522;2023-07-24T15:05:48;6.43;;;5.55;;
10440;SDS011;5268;49.346;9.522;2023-07-24T15:10:50;7.18;;;5.60;;
10440;SDS011;5268;49.346;9.522;2023-07-24T15:15:53;6.90;;;5.65;;
10440;SDS011;5268;49.346;9.522;2023-07-24T15:20:55;6.07;;;5.47;;
10440;SDS011;5268;49.346;9.522;2023-07-24T15:25:58;6.18;;;5.15;;
10440;SDS011;5268;49.346;9.522;2023-07-24T15:31:01;6.13;;;5.35;;
10440;SDS011;5268;49.346;9.522;2023-07-24T15:36:03;6.25;;;5.38;;
10440;SDS011;5268;49.346;9.522;2023-07-24T15:41:06;6.03;;;5.43;;
10440;SDS011;5268;49.346;9.522;2023-07-24T15:46:09;6.38;;;4.90;;
10440;SDS011;5268;49.346;9.522;2023-07-24T15:51:11;5.32;;;4.82;;
10440;SDS011;5268;49.346;9.522;2023-07-24T15:56:13;5.60;;;4.93;;
10440;SDS011;5268;49.346;9.522;2023-07-24T16:01:18;9.77;;;6.55;;
10440;SDS011;5268;49.346;9.522;2023-07-24T16:06:20;7.10;;;5.95;;
10440;SDS011;5268;49.346;9.522;2023-07-24T16:11:22;6.85;;;5.68;;
10440;SDS011;5268;49.346;9.522;2023-07-24T16:16:25;6.95;;;5.50;;
10440;SDS011;5268;49.346;9.522;2023-07-24T16:21:27;6.20;;;5.03;;
10440;SDS011;5268;49.346;9.522;2023-07-24T16:26:30;7.35;;;5.25;;
10440;SDS011;5268;49.346;9.522;2023-07-24T16:31:33;8.90;;;5.18;;
10440;SDS011;5268;49.346;9.522;2023-07-24T16:36:35;6.20;;;4.97;;
10440;SDS011;5268;49.346;9.522;2023-07-24T16:41:37;8.60;;;5.10;;
10440;SDS011;5268;49.346;9.522;2023-07-24T16:46:41;6.88;;;5.20;;
10440;SDS011;5268;49.346;9.522;2023-07-24T16:51:43;7.45;;;4.85;;
10440;SDS011;5268;49.346;9.522;2023-07-24T16:56:45;6.13;;;4.97;;
10440;SDS011;5268;49.346;9.522;2023-07-24T17:01:49;6.82;;;5.40;;
10440;SDS011;5268;49.346;9.522;2023-07-24T17:06:51;6.65;;;5.00;;
10440;SDS011;5268;49.346;9.522;2023-07-24T17:11:53;6.45;;;5.03;;
10440;SDS011;5268;49.346;9.522;2023-07-24T17:16:56;6.22;;;5.13;;
10440;SDS011;5268;49.346;9.522;2023-07-24T17:21:59;6.78;;;5.07;;
10440;SDS011;5268;49.346;9.522;2023-07-24T17:27:01;5.95;;;5.05;;
10440;SDS011;5268;49.346;9.522;2023-07-24T17:32:05;5.50;;;4.50;;
10440;SDS011;5268;49.346;9.522;2023-07-24T17:37:08;5.72;;;4.88;;
10440;SDS011;5268;49.346;9.522;2023-07-24T17:42:10;6.15;;;4.75;;
10440;SDS011;5268;49.346;9.522;2023-07-24T17:47:13;5.45;;;4.47;;
10440;SDS011;5268;49.346;9.522;2023-07-24T17:52:15;4.95;;;4.45;;
10440;SDS011;5268;49.346;9.522;2023-07-24T17:57:17;6.68;;;4.50;;
10440;SDS011;5268;49.346;9.522;2023-07-24T18:02:20;4.88;;;4.00;;
10440;SDS011;5268;49.346;9.522;2023-07-24T18:07:22;5.40;;;4.20;;
10440;SDS011;5268;49.346;9.522;2023-07-24T18:12:24;6.57;;;4.20;;
10440;SDS011;5268;49.346;9.522;2023-07-24T18:17:28;4.63;;;4.05;;
10440;SDS011;5268;49.346;9.522;2023-07-24T18:22:30;5.03;;;4.00;;
10440;SDS011;5268;49.346;9.522;2023-07-24T18:27:32;5.25;;;3.80;;
10440;SDS011;5268;49.346;9.522;2023-07-24T18:32:36;4.68;;;3.95;;
10440;SDS011;5268;49.346;9.522;2023-07-24T18:37:39;4.78;;;3.28;;
10440;SDS011;5268;49.346;9.522;2023-07-24T18:42:40;5.00;;;3.72;;
10440;SDS011;5268;49.346;9.522;2023-07-24T18:47:44;4.60;;;3.30;;
10440;SDS011;5268;49.346;9.522;2023-07-24T18:52:46;5.15;;;3.75;;
10440;SDS011;5268;49.346;9.522;2023-07-24T18:57:48;4.18;;;3.53;;
10440;SDS011;5268;49.346;9.522;2023-07-24T19:02:51;4.00;;;3.47;;
10440;SDS011;5268;49.346;9.522;2023-07-24T19:07:54;4.40;;;3.28;;
10440;SDS011;5268;49.346;9.522;2023-07-24T19:12:56;3.92;;;3.20;;
10440;SDS011;5268;49.346;9.522;2023-07-24T19:17:59;5.05;;;3.50;;
10440;SDS011;5268;49.346;9.522;2023-07-24T19:23:01;4.90;;;3.53;;
10440;SDS011;5268;49.346;9.522;2023-07-24T19:28:03;3.95;;;3.30;;
10440;SDS011;5268;49.346;9.522;2023-07-24T19:33:07;4.65;;;3.53;;
10440;SDS011;5268;49.346;9.522;2023-07-24T19:38:09;4.72;;;3.38;;
10440;SDS011;5268;49.346;9.522;2023-07-24T19:43:12;4.13;;;3.30;;
10440;SDS011;5268;49.346;9.522;2023-07-24T19:48:15;4.22;;;3.33;;
10440;SDS011;5268;49.346;9.522;2023-07-24T19:53:17;4.22;;;3.30;;
10440;SDS011;5268;49.346;9.522;2023-07-24T19:58:19;4.75;;;3.30;;
10440;SDS011;5268;49.346;9.522;2023-07-24T20:03:23;3.85;;;2.97;;
10440;SDS011;5268;49.346;9.522;2023-07-24T20:08:26;4.47;;;3.10;;
10440;SDS011;5268;49.346;9.522;2023-07-24T20:13:29;4.10;;;3.00;;
10440;SDS011;5268;49.346;9.522;2023-07-24T20:18:32;3.17;;;2.80;;
10440;SDS011;5268;49.346;9.522;2023-07-24T20:23:34;3.10;;;2.80;;
10440;SDS011;5268;49.346;9.522;2023-07-24T20:28:36;4.15;;;3.17;;
10440;SDS011;5268;49.346;9.522;2023-07-24T20:33:40;4.57;;;2.97;;
10440;SDS011;5268;49.346;9.522;2023-07-24T20:38:41;4.57;;;2.95;;
10440;SDS011;5268;49.346;9.522;2023-07-24T20:43:43;4.47;;;2.60;;
10440;SDS011;5268;49.346;9.522;2023-07-24T20:48:47;4.25;;;2.88;;
10440;SDS011;5268;49.346;9.522;2023-07-24T20:53:49;3.00;;;2.60;;
10440;SDS011;5268;49.346;9.522;2023-07-24T20:58:52;4.43;;;3.00;;
10440;SDS011;5268;49.346;9.522;2023-07-24T21:03:55;5.45;;;2.83;;
10440;SDS011;5268;49.346;9.522;2023-07-24T21:08:57;3.17;;;2.72;;
10440;SDS011;5268;49.346;9.522;2023-07-24T21:13:59;3.00;;;2.67;;
10440;SDS011;5268;49.346;9.522;2023-07-24T21:19:03;3.50;;;2.97;;
10440;SDS011;5268;49.346;9.522;2023-07-24T21:24:05;3.15;;;2.80;;
10440;SDS011;5268;49.346;9.522;2023-07-24T21:29:07;5.05;;;3.25;;
10440;SDS011;5268;49.346;9.522;2023-07-24T21:34:10;3.65;;;3.00;;
10440;SDS011;5268;49.346;9.522;2023-07-24T21:39:12;4.30;;;3.03;;
10440;SDS011;5268;49.346;9.522;2023-07-24T21:44:14;4.47;;;3.15;;
10440;SDS011;5268;49.346;9.522;2023-07-24T21:49:18;3.58;;;2.85;;
10440;SDS011;5268;49.346;9.522;2023-07-24T21:54:20;5.72;;;2.85;;
